Time;durP1;ratioP1;P1;durP2;ratioP2;P2;SDS_P1;SDS_P2;PMS_P1;PMS_P2;Temp;Humidity;BMP_temperature;BMP_pressure;BME280_temperature;BME280_humidity;BME280_pressure;Samples;Min_cycle;Max_cycle;Signal;HPM_P1;HPM_P2
2022/10/07 00:00:49;;;;;;;17.50;6.90;;;12.70;79.20;;;;;;5015000;28;20718;-78
2022/10/07 00:03:15;;;;;;;17.23;6.20;;;12.70;79.30;;;;;;5033065;28;20437;-80
2022/10/07 00:05:41;;;;;;;16.20;6.43;;;12.70;79.40;;;;;;5034505;28;20113;-79
2022/10/07 00:08:07;;;;;;;14.65;5.65;;;12.60;79.40;;;;;;5031986;28;20040;-78
2022/10/07 00:10:41;;;;;;;16.10;6.88;;;12.60;79.40;;;;;;5019494;28;20439;-80
2022/10/07 00:13:10;;;;;;;19.98;5.93;;;12.60;79.60;;;;;;5032167;28;20489;-79
2022/10/07 00:15:36;;;;;;;14.20;5.78;;;12.70;79.80;;;;;;5011081;28;20108;-79
2022/10/07 00:18:03;;;;;;;17.05;6.00;;;12.70;79.90;;;;;;5014348;28;20572;-80
2022/10/07 00:20:28;;;;;;;19.88;6.53;;;12.70;79.80;;;;;;5009533;28;20111;-79
2022/10/07 00:22:54;;;;;;;18.60;7.55;;;12.60;79.80;;;;;;5031740;28;20029;-79
2022/10/07 00:25:20;;;;;;;14.60;6.05;;;12.60;79.90;;;;;;5030184;28;20038;-79
2022/10/07 00:27:49;;;;;;;14.90;6.35;;;12.60;80.00;;;;;;5026002;28;20068;-78
2022/10/07 00:30:14;;;;;;;16.83;6.22;;;12.60;80.00;;;;;;5032025;28;20030;-79
2022/10/07 00:32:40;;;;;;;12.70;5.50;;;12.60;80.20;;;;;;5029587;28;20124;-79
2022/10/07 00:35:06;;;;;;;18.80;6.22;;;12.60;80.20;;;;;;5030778;28;20087;-80
2022/10/07 00:37:31;;;;;;;16.20;5.80;;;12.60;80.30;;;;;;5030479;28;20032;-78
2022/10/07 00:39:57;;;;;;;13.35;4.93;;;12.50;80.20;;;;;;5030964;28;20372;-78
2022/10/07 00:42:22;;;;;;;14.45;5.40;;;12.50;80.30;;;;;;5030903;28;20072;-79
2022/10/07 00:44:48;;;;;;;17.52;5.55;;;12.50;80.30;;;;;;5029561;28;20030;-80
2022/10/07 00:47:37;;;;;;;15.65;5.55;;;12.50;80.40;;;;;;5022006;28;20038;-79
2022/10/07 00:50:07;;;;;;;15.75;6.18;;;12.50;80.50;;;;;;5030312;28;20022;-79
2022/10/07 00:52:40;;;;;;;19.67;7.03;;;12.50;80.50;;;;;;5030670;28;20029;-79
2022/10/07 00:55:11;;;;;;;14.52;5.75;;;12.40;80.60;;;;;;5028575;28;20021;-78
2022/10/07 00:57:38;;;;;;;18.00;6.28;;;12.40;80.70;;;;;;5020283;28;20037;-79
2022/10/07 01:00:05;;;;;;;17.42;6.30;;;12.40;81.00;;;;;;5014802;28;20386;-79
2022/10/07 01:02:32;;;;;;;18.42;6.63;;;12.40;81.00;;;;;;5003869;28;20112;-79
2022/10/07 01:05:01;;;;;;;17.95;5.97;;;12.30;80.90;;;;;;5018750;28;20539;-79
2022/10/07 01:07:28;;;;;;;17.57;6.47;;;12.30;81.00;;;;;;5028100;28;20179;-79
2022/10/07 01:09:55;;;;;;;14.45;6.22;;;12.30;81.30;;;;;;5025007;28;20295;-79
2022/10/07 01:12:48;;;;;;;13.45;5.35;;;12.30;81.70;;;;;;5011577;28;20021;-79
2022/10/07 01:15:36;;;;;;;21.08;5.88;;;12.20;82.10;;;;;;5030162;28;20028;-79
2022/10/07 01:18:27;;;;;;;14.27;6.65;;;12.20;82.30;;;;;;5029908;28;20034;-79
2022/10/07 01:20:59;;;;;;;23.63;6.85;;;12.20;82.70;;;;;;5029627;28;20124;-79
2022/10/07 01:23:27;;;;;;;12.52;5.80;;;12.20;82.90;;;;;;5030301;28;20524;-79
2022/10/07 01:25:56;;;;;;;16.55;6.85;;;12.10;82.90;;;;;;5029555;28;20029;-79
2022/10/07 01:28:37;;;;;;;25.08;6.32;;;12.10;82.90;;;;;;5026925;28;20029;-77
2022/10/07 01:31:05;;;;;;;16.02;5.75;;;12.10;83.10;;;;;;5009803;28;20029;-79
2022/10/07 01:33:32;;;;;;;21.02;6.45;;;12.20;83.00;;;;;;5028997;28;20045;-80
2022/10/07 01:36:03;;;;;;;15.45;5.50;;;12.20;83.10;;;;;;5029440;28;20021;-80
2022/10/07 01:38:32;;;;;;;18.25;5.38;;;12.10;83.10;;;;;;5019689;28;20061;-79
2022/10/07 01:41:07;;;;;;;10.48;4.25;;;12.20;83.20;;;;;;5031245;28;20060;-78
2022/10/07 01:43:33;;;;;;;14.45;4.93;;;12.20;83.10;;;;;;5029746;28;20480;-78
2022/10/07 01:46:00;;;;;;;19.38;6.25;;;12.20;83.00;;;;;;5030071;28;20056;-78
2022/10/07 01:48:27;;;;;;;15.82;4.35;;;12.20;83.00;;;;;;5030033;28;20034;-78
2022/10/07 01:50:56;;;;;;;18.42;5.35;;;12.20;82.90;;;;;;5029564;28;20439;-79
2022/10/07 01:53:30;;;;;;;12.93;5.55;;;12.20;83.00;;;;;;5029628;28;20029;-80
2022/10/07 01:56:33;;;;;;;13.10;3.63;;;12.20;82.90;;;;;;5028993;28;20029;-80
2022/10/07 01:59:10;;;;;;;16.70;5.70;;;12.20;82.90;;;;;;5028775;28;20081;-79
2022/10/07 02:01:47;;;;;;;15.55;5.40;;;12.20;83.40;;;;;;5029768;28;20488;-78
2022/10/07 02:04:31;;;;;;;13.60;5.03;;;12.10;82.80;;;;;;5026518;28;20048;-79
2022/10/07 02:07:15;;;;;;;12.90;4.80;;;12.10;83.00;;;;;;5012153;28;20036;-79
2022/10/07 02:10:14;;;;;;;15.60;5.53;;;12.10;83.40;;;;;;5028358;28;20026;-79
2022/10/07 02:12:57;;;;;;;16.98;4.78;;;12.10;83.40;;;;;;4970514;28;20040;-79
2022/10/07 02:15:46;;;;;;;13.90;4.82;;;12.10;83.40;;;;;;5028879;28;20021;-80
2022/10/07 02:18:15;;;;;;;13.23;4.65;;;12.00;83.60;;;;;;5029818;28;20028;-79
2022/10/07 02:20:45;;;;;;;19.23;5.68;;;12.10;83.70;;;;;;5029102;28;20084;-78
2022/10/07 02:23:19;;;;;;;13.82;5.18;;;12.10;83.80;;;;;;5029039;28;20068;-79
2022/10/07 02:25:47;;;;;;;19.85;5.57;;;12.00;83.90;;;;;;5021589;28;20040;-79
2022/10/07 02:28:22;;;;;;;18.65;4.78;;;12.00;83.90;;;;;;5011356;28;20021;-79
2022/10/07 02:30:52;;;;;;;16.85;4.65;;;12.00;84.00;;;;;;5028890;28;20033;-79
2022/10/07 02:33:19;;;;;;;15.10;4.68;;;12.00;84.10;;;;;;5029044;28;20488;-79
2022/10/07 02:35:54;;;;;;;16.55;4.82;;;12.10;84.10;;;;;;5029026;28;20044;-79
2022/10/07 02:38:25;;;;;;;15.70;4.57;;;12.00;84.00;;;;;;5011896;28;20432;-79
2022/10/07 02:41:42;;;;;;;16.30;5.47;;;12.00;84.00;;;;;;5012352;28;20140;-79
2022/10/07 02:44:14;;;;;;;17.65;4.75;;;12.00;84.00;;;;;;5028775;28;20097;-78
2022/10/07 02:47:02;;;;;;;13.80;4.15;;;12.00;83.90;;;;;;5025582;28;20034;-80
2022/10/07 02:49:29;;;;;;;14.82;4.55;;;12.00;84.00;;;;;;5031899;28;20040;-80
2022/10/07 02:52:06;;;;;;;13.93;4.65;;;12.00;84.00;;;;;;5034116;28;20021;-79
2022/10/07 02:54:43;;;;;;;18.40;5.75;;;12.00;84.10;;;;;;5015520;28;20116;-79
2022/10/07 02:57:12;;;;;;;21.17;5.13;;;11.90;84.40;;;;;;5032287;28;20026;-79
2022/10/07 02:59:38;;;;;;;15.80;4.78;;;11.90;84.60;;;;;;5032036;28;20033;-80
2022/10/07 03:02:10;;;;;;;12.57;4.93;;;11.90;85.00;;;;;;5019717;28;20026;-80
2022/10/07 03:04:38;;;;;;;15.93;5.03;;;11.90;85.30;;;;;;5020626;28;20041;-80
2022/10/07 03:07:04;;;;;;;25.35;6.10;;;11.80;85.40;;;;;;5021432;28;20505;-80
2022/10/07 03:09:30;;;;;;;16.70;5.10;;;11.90;85.50;;;;;;5027938;28;20059;-79
2022/10/07 03:11:57;;;;;;;15.35;4.95;;;11.80;85.50;;;;;;5022503;28;20025;-79
2022/10/07 03:14:23;;;;;;;11.50;4.07;;;11.80;85.50;;;;;;5033013;28;20025;-78
2022/10/07 03:16:51;;;;;;;11.75;5.03;;;11.90;85.40;;;;;;5031664;28;20036;-79
2022/10/07 03:19:17;;;;;;;18.40;4.95;;;11.90;85.20;;;;;;5015382;28;20026;-80
2022/10/07 03:21:46;;;;;;;20.67;5.65;;;11.90;85.30;;;;;;5032919;28;20057;-79
2022/10/07 03:24:12;;;;;;;13.35;4.13;;;11.80;85.50;;;;;;5032330;28;20033;-79
2022/10/07 03:26:38;;;;;;;12.70;4.22;;;11.90;85.70;;;;;;5031824;28;20071;-79
2022/10/07 03:29:04;;;;;;;14.48;4.72;;;11.80;85.70;;;;;;5031909;28;20107;-79
2022/10/07 03:31:30;;;;;;;15.55;4.97;;;11.80;85.80;;;;;;5032746;28;20030;-79
2022/10/07 03:33:56;;;;;;;19.50;4.90;;;11.90;85.90;;;;;;5026763;28;20053;-78
2022/10/07 03:36:22;;;;;;;11.38;3.92;;;11.80;85.80;;;;;;5031843;28;20020;-79
2022/10/07 03:38:49;;;;;;;13.20;4.55;;;11.80;85.90;;;;;;5032327;28;20024;-78
2022/10/07 03:41:15;;;;;;;15.98;5.10;;;11.90;85.90;;;;;;5032219;28;20013;-79
2022/10/07 03:43:41;;;;;;;19.92;5.00;;;11.80;86.20;;;;;;5032426;28;20056;-79
2022/10/07 03:46:07;;;;;;;16.17;5.80;;;11.80;86.30;;;;;;5031895;28;20460;-78
2022/10/07 03:48:33;;;;;;;20.58;5.20;;;11.80;86.60;;;;;;5032457;28;20048;-79
2022/10/07 03:50:59;;;;;;;19.38;4.95;;;11.70;86.80;;;;;;5032089;28;20031;-79
2022/10/07 03:53:28;;;;;;;12.52;4.20;;;11.70;86.80;;;;;;5032146;28;20017;-79
2022/10/07 03:55:54;;;;;;;17.35;4.00;;;11.80;86.80;;;;;;5031813;28;20104;-79
2022/10/07 03:58:20;;;;;;;16.33;4.70;;;11.70;86.80;;;;;;5030250;28;20026;-79
2022/10/07 04:00:46;;;;;;;18.95;4.85;;;11.70;86.80;;;;;;5031882;28;20439;-79
2022/10/07 04:03:13;;;;;;;17.23;5.40;;;11.70;86.70;;;;;;5022064;28;20033;-80
2022/10/07 04:05:38;;;;;;;11.63;5.50;;;11.80;86.80;;;;;;5031231;28;20116;-79
2022/10/07 04:08:05;;;;;;;15.60;4.93;;;11.80;86.80;;;;;;5030837;28;20105;-79
2022/10/07 04:10:33;;;;;;;20.98;6.47;;;11.70;86.60;;;;;;5013451;28;20045;-79
2022/10/07 04:12:59;;;;;;;20.73;5.28;;;11.80;86.70;;;;;;5031324;28;20032;-79
2022/10/07 04:15:25;;;;;;;18.20;5.40;;;11.70;86.70;;;;;;5031066;28;20435;-79
2022/10/07 04:17:57;;;;;;;21.33;5.55;;;11.70;86.80;;;;;;5030627;28;20025;-79
2022/10/07 04:20:23;;;;;;;19.65;5.43;;;11.70;86.90;;;;;;5002038;28;20084;-79
2022/10/07 04:22:49;;;;;;;13.73;5.38;;;11.70;87.10;;;;;;5013242;28;20083;-79
2022/10/07 04:25:33;;;;;;;19.95;4.78;;;11.70;87.10;;;;;;5031253;28;20033;-79
2022/10/07 04:28:00;;;;;;;19.05;4.88;;;11.60;87.10;;;;;;5031225;28;20451;-79
2022/10/07 04:30:28;;;;;;;16.52;4.63;;;11.60;87.30;;;;;;5031020;28;20511;-79
2022/10/07 04:32:53;;;;;;;13.68;5.38;;;11.60;87.30;;;;;;5020932;28;20547;-79
2022/10/07 04:35:21;;;;;;;15.15;4.78;;;11.70;87.10;;;;;;5015877;28;20030;-79
2022/10/07 04:37:50;;;;;;;12.52;4.80;;;11.70;87.20;;;;;;5019695;28;20032;-79
2022/10/07 04:40:21;;;;;;;19.70;5.68;;;11.70;87.20;;;;;;5021151;28;20025;-79
2022/10/07 04:45:34;;;;;;;21.95;5.32;;;11.60;87.20;;;;;;5020479;28;20479;-79
2022/10/07 04:48:01;;;;;;;17.02;4.20;;;11.70;87.30;;;;;;5030463;28;20047;-79
2022/10/07 04:50:26;;;;;;;20.23;4.75;;;11.70;87.30;;;;;;5031051;28;20029;-79
2022/10/07 04:52:52;;;;;;;19.05;5.75;;;11.70;87.30;;;;;;5030623;28;20029;-79
2022/10/07 04:55:18;;;;;;;16.60;4.55;;;11.70;87.30;;;;;;5022476;28;20049;-79
2022/10/07 04:57:43;;;;;;;13.63;4.18;;;11.70;87.30;;;;;;5016142;28;20080;-78
2022/10/07 05:00:09;;;;;;;20.20;4.78;;;11.60;87.30;;;;;;5030304;28;20036;-80
2022/10/07 05:02:35;;;;;;;16.05;5.72;;;11.60;87.50;;;;;;5029921;28;20029;-78
2022/10/07 05:05:01;;;;;;;16.90;6.40;;;11.60;87.50;;;;;;5020021;28;20099;-79
2022/10/07 05:07:27;;;;;;;17.95;5.15;;;11.70;87.40;;;;;;5030586;28;20484;-79
2022/10/07 05:09:52;;;;;;;13.82;4.57;;;11.60;87.30;;;;;;5030528;28;20026;-79
2022/10/07 05:12:19;;;;;;;12.23;4.05;;;11.60;87.20;;;;;;5031248;28;20498;-79
2022/10/07 05:14:45;;;;;;;17.23;5.18;;;11.70;87.00;;;;;;5004920;28;20034;-79
2022/10/07 05:17:11;;;;;;;26.15;5.95;;;11.70;86.90;;;;;;5028822;28;20025;-78
2022/10/07 05:19:37;;;;;;;12.85;3.97;;;11.70;86.90;;;;;;5030679;28;20348;-78
2022/10/07 05:22:03;;;;;;;20.02;5.20;;;11.70;86.80;;;;;;5030714;28;20053;-78
2022/10/07 05:24:29;;;;;;;14.60;4.88;;;11.60;86.80;;;;;;5026130;28;20042;-78
2022/10/07 05:26:54;;;;;;;18.27;5.05;;;11.60;86.90;;;;;;5011271;28;20385;-80
2022/10/07 05:29:20;;;;;;;14.65;4.80;;;11.60;87.00;;;;;;4999167;28;20447;-78
2022/10/07 05:31:47;;;;;;;21.90;5.82;;;11.60;87.00;;;;;;5019973;28;20037;-78
2022/10/07 05:34:14;;;;;;;17.95;4.93;;;11.60;87.20;;;;;;5001845;28;20035;-79
2022/10/07 05:36:40;;;;;;;17.73;6.03;;;11.60;87.10;;;;;;5030101;28;20508;-78
2022/10/07 05:39:09;;;;;;;12.40;4.32;;;11.60;87.20;;;;;;5030519;28;20029;-78
2022/10/07 05:41:35;;;;;;;17.25;4.13;;;11.60;87.20;;;;;;5029869;28;20100;-78
2022/10/07 05:44:01;;;;;;;20.10;5.68;;;11.60;87.20;;;;;;5030008;28;20017;-77
2022/10/07 05:46:26;;;;;;;21.52;5.75;;;11.60;87.30;;;;;;5028354;28;20084;-79
2022/10/07 05:48:53;;;;;;;16.33;5.13;;;11.50;87.40;;;;;;5029557;28;20403;-78
2022/10/07 05:51:22;;;;;;;15.50;4.32;;;11.50;87.50;;;;;;5029325;28;20350;-79
2022/10/07 05:53:52;;;;;;;22.25;5.88;;;11.50;87.70;;;;;;5011082;28;20033;-78
2022/10/07 05:56:21;;;;;;;20.97;5.53;;;11.50;87.80;;;;;;5028088;28;20029;-78
2022/10/07 05:58:51;;;;;;;24.38;5.38;;;11.40;88.20;;;;;;5012144;28;20271;-78
2022/10/07 06:01:19;;;;;;;25.52;6.93;;;11.40;88.60;;;;;;5010671;28;20022;-78
2022/10/07 06:03:53;;;;;;;21.25;6.03;;;11.30;88.70;;;;;;5027515;28;20021;-77
2022/10/07 06:06:19;;;;;;;21.60;5.45;;;11.30;88.90;;;;;;5030182;28;20044;-78
2022/10/07 06:08:45;;;;;;;22.95;5.45;;;11.30;88.80;;;;;;5025837;28;20493;-78
2022/10/07 06:13:58;;;;;;;16.60;4.63;;;11.40;89.20;;;;;;5027519;28;20129;-78
2022/10/07 06:16:26;;;;;;;26.25;6.13;;;11.40;89.20;;;;;;5028142;28;20506;-78
2022/10/07 06:18:53;;;;;;;32.58;11.25;;;11.40;89.10;;;;;;5032033;28;20045;-78
2022/10/07 06:21:20;;;;;;;35.63;11.35;;;11.40;89.30;;;;;;5030313;28;20469;-78
2022/10/07 06:23:52;;;;;;;22.98;8.80;;;11.40;89.40;;;;;;5033913;28;20384;-78
2022/10/07 06:26:19;;;;;;;17.55;5.72;;;11.50;89.50;;;;;;5027477;28;20037;-76
2022/10/07 06:28:45;;;;;;;22.77;6.85;;;11.50;89.30;;;;;;5032752;28;20022;-77
2022/10/07 06:31:15;;;;;;;21.65;5.85;;;11.60;88.70;;;;;;5032494;28;20793;-76
2022/10/07 06:33:49;;;;;;;17.65;5.90;;;11.70;88.40;;;;;;5033447;28;20017;-77
2022/10/07 06:36:16;;;;;;;20.90;6.05;;;11.80;87.90;;;;;;5030797;28;20476;-76
2022/10/07 06:38:48;;;;;;;14.90;6.10;;;11.90;87.80;;;;;;5031413;28;20014;-78
2022/10/07 06:41:14;;;;;;;18.42;6.13;;;11.90;87.40;;;;;;5032627;28;20026;-78
2022/10/07 06:43:40;;;;;;;20.38;6.68;;;12.10;87.20;;;;;;5033364;28;20487;-78
2022/10/07 06:46:09;;;;;;;15.57;2.78;;;12.20;86.60;;;;;;5032595;28;20049;-78
2022/10/07 06:48:35;;;;;;;10.18;3.08;;;12.50;85.10;;;;;;5031593;28;20021;-78
2022/10/07 06:51:04;;;;;;;17.77;5.45;;;12.80;83.90;;;;;;5032797;28;20029;-78
2022/10/07 06:53:31;;;;;;;16.85;4.20;;;12.90;83.20;;;;;;5031588;28;20488;-77
2022/10/07 06:56:02;;;;;;;20.83;5.00;;;12.90;82.40;;;;;;5029043;28;20113;-78
2022/10/07 06:58:28;;;;;;;18.77;5.15;;;13.00;82.40;;;;;;5028465;28;20063;-78
2022/10/07 07:00:54;;;;;;;14.00;4.22;;;12.90;82.30;;;;;;5029274;28;20060;-78
2022/10/07 07:03:21;;;;;;;22.10;5.55;;;13.00;82.20;;;;;;5028525;28;20025;-78
2022/10/07 07:05:47;;;;;;;18.48;5.10;;;13.00;81.90;;;;;;4994894;28;20413;-78
2022/10/07 07:08:15;;;;;;;17.58;5.00;;;13.10;82.20;;;;;;5022072;28;20017;-78
2022/10/07 07:10:43;;;;;;;18.83;6.22;;;13.20;82.50;;;;;;5029837;28;20028;-77
2022/10/07 07:13:10;;;;;;;26.05;5.53;;;13.40;81.60;;;;;;5011823;28;20485;-78
2022/10/07 07:15:36;;;;;;;18.98;5.70;;;13.50;80.80;;;;;;5030362;28;20017;-78
2022/10/07 07:18:04;;;;;;;14.18;4.28;;;13.60;80.70;;;;;;5029029;28;20082;-77
2022/10/07 07:20:36;;;;;;;19.52;5.38;;;13.80;80.30;;;;;;5028289;28;20060;-77
2022/10/07 07:23:08;;;;;;;17.35;4.43;;;13.90;79.30;;;;;;5028355;28;20026;-78
2022/10/07 07:25:38;;;;;;;18.65;4.85;;;14.00;78.70;;;;;;5020120;28;20037;-77
2022/10/07 07:28:06;;;;;;;15.35;4.40;;;13.90;78.50;;;;;;5010851;28;20057;-77
2022/10/07 07:30:33;;;;;;;18.20;4.43;;;13.90;79.10;;;;;;5019314;28;20479;-77
2022/10/07 07:32:58;;;;;;;20.23;5.57;;;13.90;79.30;;;;;;5029969;28;20116;-76
2022/10/07 07:35:27;;;;;;;17.60;5.47;;;13.90;79.00;;;;;;5030755;28;20542;-77
2022/10/07 07:37:53;;;;;;;19.10;5.63;;;13.80;79.30;;;;;;5030526;28;20514;-77
2022/10/07 07:40:20;;;;;;;18.55;5.50;;;13.70;79.80;;;;;;5027463;28;20017;-79
2022/10/07 07:42:47;;;;;;;14.95;4.93;;;13.80;79.80;;;;;;5024683;28;20168;-74
2022/10/07 07:45:13;;;;;;;17.17;5.05;;;13.70;79.80;;;;;;5032171;28;20052;-74
2022/10/07 07:47:39;;;;;;;13.88;4.35;;;13.80;79.90;;;;;;5034171;28;20022;-76
2022/10/07 07:50:06;;;;;;;18.02;5.65;;;13.80;79.80;;;;;;5019003;28;20042;-77
2022/10/07 07:52:32;;;;;;;15.45;5.38;;;13.80;79.90;;;;;;5031937;28;20032;-78
2022/10/07 07:54:58;;;;;;;17.73;6.25;;;13.90;80.00;;;;;;5034210;28;20022;-78
2022/10/07 07:57:28;;;;;;;18.27;5.53;;;14.00;80.10;;;;;;5040355;28;20028;-79
2022/10/07 07:59:54;;;;;;;16.50;6.82;;;14.20;79.70;;;;;;5043218;28;20093;-78
2022/10/07 08:02:22;;;;;;;17.27;6.18;;;14.40;79.50;;;;;;5039853;28;20025;-77
2022/10/07 08:04:48;;;;;;;15.82;4.18;;;14.60;79.30;;;;;;5015893;28;20031;-77
2022/10/07 08:07:14;;;;;;;12.05;3.80;;;14.80;78.00;;;;;;5035805;28;20077;-77
2022/10/07 08:09:39;;;;;;;17.42;5.68;;;14.90;77.40;;;;;;5035367;28;20064;-78
2022/10/07 08:12:05;;;;;;;11.77;4.13;;;14.90;77.10;;;;;;5015166;28;20060;-78
2022/10/07 08:14:31;;;;;;;16.33;4.90;;;14.80;76.90;;;;;;5033265;28;20033;-78
2022/10/07 08:16:58;;;;;;;17.75;5.15;;;14.80;76.80;;;;;;5032410;28;20049;-78
2022/10/07 08:19:25;;;;;;;15.23;4.97;;;14.70;77.00;;;;;;5031929;28;20034;-76
2022/10/07 08:21:51;;;;;;;15.02;4.40;;;14.60;77.20;;;;;;5030523;28;20061;-76
2022/10/07 08:24:16;;;;;;;19.70;5.00;;;14.60;77.20;;;;;;5032440;28;20024;-78
2022/10/07 08:26:42;;;;;;;12.43;3.65;;;14.50;77.40;;;;;;5014450;28;20400;-77
2022/10/07 08:29:08;;;;;;;14.43;4.15;;;14.60;77.70;;;;;;5032818;28;20032;-78
2022/10/07 08:31:34;;;;;;;14.88;3.92;;;14.60;77.70;;;;;;5032801;28;20039;-77
2022/10/07 08:34:02;;;;;;;15.57;5.25;;;14.70;77.80;;;;;;5032662;28;20060;-76
2022/10/07 08:36:30;;;;;;;12.43;4.20;;;14.80;77.80;;;;;;5014354;28;20029;-76
2022/10/07 08:38:56;;;;;;;16.50;4.00;;;14.80;77.70;;;;;;5032112;28;20026;-79
2022/10/07 08:41:41;;;;;;;17.55;4.72;;;14.80;77.70;;;;;;5032072;28;20018;-77
2022/10/07 08:44:16;;;;;;;13.10;3.95;;;15.00;78.40;;;;;;5014197;28;20053;-78
2022/10/07 08:47:15;;;;;;;11.60;3.65;;;15.30;77.50;;;;;;5034111;28;20062;-76
2022/10/07 08:50:11;;;;;;;18.58;4.13;;;15.60;76.70;;;;;;5013452;28;20490;-77
2022/10/07 08:52:40;;;;;;;13.98;3.50;;;16.00;76.40;;;;;;5031617;28;20017;-78
2022/10/07 08:55:35;;;;;;;16.00;4.07;;;16.40;75.70;;;;;;5032154;28;20033;-78
2022/10/07 08:58:04;;;;;;;16.25;4.57;;;16.60;73.60;;;;;;5023657;28;20037;-77
2022/10/07 09:00:50;;;;;;;16.42;4.65;;;16.90;73.10;;;;;;5014371;28;20090;-77
2022/10/07 09:03:35;;;;;;;13.95;3.95;;;17.10;72.20;;;;;;5013497;28;20037;-78
2022/10/07 09:06:09;;;;;;;15.95;4.38;;;17.30;72.40;;;;;;5031403;28;20041;-77
2022/10/07 09:08:42;;;;;;;18.73;3.80;;;17.60;71.70;;;;;;5031070;28;20075;-77
2022/10/07 09:11:15;;;;;;;10.27;3.03;;;17.90;70.50;;;;;;5031539;28;20053;-78
2022/10/07 09:13:49;;;;;;;10.23;3.70;;;18.00;69.80;;;;;;5027901;28;20036;-78
2022/10/07 09:16:37;;;;;;;12.77;3.55;;;18.00;70.20;;;;;;5031322;28;20109;-78
2022/10/07 09:19:03;;;;;;;12.90;3.25;;;18.10;70.20;;;;;;5029421;28;20041;-73
2022/10/07 09:21:40;;;;;;;14.80;3.47;;;18.20;69.90;;;;;;5028599;28;20045;-76
2022/10/07 09:24:23;;;;;;;16.05;3.97;;;18.40;68.40;;;;;;5027891;28;20026;-76
2022/10/07 09:26:54;;;;;;;15.73;3.40;;;18.40;70.00;;;;;;5024354;28;20868;-77
2022/10/07 09:29:25;;;;;;;11.98;2.97;;;18.40;68.40;;;;;;5029112;28;20131;-76
2022/10/07 09:31:52;;;;;;;;;;;18.30;68.80;;;;;;5027833;28;20083;-76
2022/10/07 09:34:23;;;;;;;15.05;3.13;;;18.30;69.30;;;;;;5030196;28;19908;-77
2022/10/07 09:37:09;;;;;;;14.52;3.20;;;18.20;70.80;;;;;;5030412;28;20053;-76
2022/10/07 09:39:35;;;;;;;17.52;3.83;;;18.00;70.20;;;;;;5030234;28;20013;-78
2022/10/07 09:42:05;;;;;;;12.82;2.80;;;17.90;70.40;;;;;;5030591;28;20057;-76
2022/10/07 09:44:31;;;;;;;9.88;2.53;;;17.80;69.90;;;;;;5029434;28;20025;-77
2022/10/07 09:47:01;;;;;;;19.27;4.45;;;17.70;71.10;;;;;;5030535;28;20037;-78
2022/10/07 09:49:33;;;;;;;13.07;3.83;;;17.60;69.40;;;;;;5029605;28;20412;-77
2022/10/07 09:52:02;;;;;;;8.98;2.28;;;17.50;70.40;;;;;;5029748;28;20076;-76
2022/10/07 09:54:29;;;;;;;8.35;2.90;;;17.50;70.70;;;;;;5029692;28;20025;-76
2022/10/07 09:56:57;;;;;;;8.38;3.10;;;17.50;71.10;;;;;;5029684;28;20041;-77
2022/10/07 09:59:31;;;;;;;12.43;3.00;;;17.50;71.10;;;;;;5011795;28;20045;-76
2022/10/07 10:02:02;;;;;;;16.13;4.30;;;17.60;71.00;;;;;;5010645;28;20033;-78
2022/10/07 10:04:31;;;;;;;8.93;2.08;;;17.50;70.00;;;;;;5024681;28;20030;-76
2022/10/07 10:07:04;;;;;;;10.48;3.00;;;17.50;70.60;;;;;;5030248;28;20395;-77
2022/10/07 10:09:31;;;;;;;16.98;5.80;;;17.60;71.00;;;;;;5029301;28;20080;-78
2022/10/07 10:12:12;;;;;;;12.93;3.65;;;17.60;70.30;;;;;;5012733;28;20052;-78
2022/10/07 10:14:56;;;;;;;9.98;2.83;;;17.60;70.50;;;;;;5030967;28;20022;-76
2022/10/07 10:17:37;;;;;;;10.45;2.35;;;17.60;70.20;;;;;;5031712;28;20116;-79
2022/10/07 10:20:22;;;;;;;17.10;3.10;;;17.60;70.20;;;;;;5030430;28;20026;-78
2022/10/07 10:22:48;;;;;;;14.35;3.60;;;17.60;69.80;;;;;;5030041;28;20110;-75
2022/10/07 10:28:28;;;;;;;10.77;2.78;;;17.70;70.10;;;;;;5009982;28;20519;-73
2022/10/07 10:31:08;;;;;;;10.15;2.40;;;17.70;68.80;;;;;;5011133;28;20519;-73
2022/10/07 10:33:57;;;;;;;9.82;2.05;;;17.70;68.50;;;;;;5029397;28;20018;-73
2022/10/07 10:36:25;;;;;;;8.45;2.13;;;17.80;69.70;;;;;;5026938;28;20017;-73
2022/10/07 10:39:32;;;;;;;15.10;3.22;;;17.90;69.30;;;;;;5027404;28;20042;-74
2022/10/07 10:42:04;;;;;;;16.52;2.67;;;17.80;68.10;;;;;;5018948;28;20026;-73
2022/10/07 10:44:52;;;;;;;10.70;2.90;;;17.80;68.90;;;;;;5030476;28;20033;-74
2022/10/07 10:47:26;;;;;;;16.58;2.90;;;17.80;68.50;;;;;;5021214;28;20033;-73
2022/10/07 10:50:20;;;;;;;16.23;3.25;;;17.90;68.10;;;;;;5030349;28;20097;-74
2022/10/07 10:53:01;;;;;;;10.25;2.42;;;18.00;67.80;;;;;;5009617;28;20021;-74
2022/10/07 10:55:57;;;;;;;13.63;3.20;;;18.20;67.60;;;;;;5018102;28;20034;-74
2022/10/07 10:59:02;;;;;;;10.10;2.47;;;18.30;66.30;;;;;;5029125;28;20061;-74
2022/10/07 11:01:37;;;;;;;12.73;2.72;;;18.50;65.90;;;;;;5029682;28;20072;-73
2022/10/07 11:04:20;;;;;;;14.60;3.42;;;18.80;66.20;;;;;;5013459;28;20026;-74
2022/10/07 11:06:52;;;;;;;9.02;2.25;;;19.10;66.20;;;;;;5029460;28;20628;-74
2022/10/07 11:09:47;;;;;;;12.90;2.83;;;19.40;63.90;;;;;;5032370;28;20048;-74
2022/10/07 11:12:38;;;;;;;12.32;2.83;;;19.80;64.00;;;;;;5030196;28;20095;-72
2022/10/07 11:15:16;;;;;;;7.15;1.83;;;20.10;60.80;;;;;;5032610;28;20036;-73
2022/10/07 11:17:44;;;;;;;11.30;2.20;;;20.30;61.70;;;;;;5032213;28;20022;-73
2022/10/07 11:20:38;;;;;;;12.13;2.35;;;20.20;59.70;;;;;;5032482;28;20684;-74
2022/10/07 11:23:35;;;;;;;11.18;3.83;;;20.20;59.20;;;;;;5030191;28;20028;-75
2022/10/07 11:26:19;;;;;;;8.63;2.28;;;20.20;59.20;;;;;;5015134;28;20041;-74
2022/10/07 11:28:45;;;;;;;6.90;2.38;;;20.40;63.10;;;;;;5023553;28;20446;-75
2022/10/07 11:31:27;;;;;;;13.70;3.95;;;20.60;59.00;;;;;;5032075;28;20026;-75
2022/10/07 11:34:18;;;;;;;10.43;2.45;;;20.70;57.50;;;;;;5022930;28;20021;-73
2022/10/07 11:37:09;;;;;;;11.60;2.75;;;20.80;59.60;;;;;;5032881;28;20104;-73
2022/10/07 11:39:38;;;;;;;11.38;3.25;;;21.10;58.90;;;;;;5032380;28;20060;-75
2022/10/07 11:42:21;;;;;;;13.52;2.88;;;21.30;57.40;;;;;;5031611;28;20093;-75
2022/10/07 11:44:53;;;;;;;12.90;2.78;;;21.40;59.50;;;;;;5031407;28;20037;-75
2022/10/07 11:47:23;;;;;;;10.70;2.28;;;21.60;57.70;;;;;;5032256;28;20033;-75
2022/10/07 11:50:15;;;;;;;10.70;2.30;;;21.60;56.70;;;;;;5032089;28;20029;-74
2022/10/07 11:52:44;;;;;;;12.73;2.47;;;21.70;56.50;;;;;;5014247;28;20104;-74
2022/10/07 11:55:25;;;;;;;9.45;2.40;;;21.60;56.10;;;;;;5031979;28;20052;-74
2022/10/07 11:57:56;;;;;;;12.88;2.80;;;21.60;55.10;;;;;;5014523;28;20033;-76
2022/10/07 12:00:30;;;;;;;10.60;2.95;;;21.80;56.30;;;;;;5033954;28;20025;-75
2022/10/07 12:03:17;;;;;;;8.93;2.42;;;21.90;55.00;;;;;;5034239;28;20583;-75
2022/10/07 12:05:49;;;;;;;6.65;2.00;;;21.90;58.50;;;;;;5003836;28;20057;-76
2022/10/07 12:08:35;;;;;;;8.45;2.50;;;22.10;58.80;;;;;;5019628;28;20034;-75
2022/10/07 12:11:10;;;;;;;14.93;3.28;;;22.40;60.50;;;;;;5030944;28;20499;-74
2022/10/07 12:13:39;;;;;;;9.27;2.03;;;22.50;60.70;;;;;;5030771;28;20053;-73
2022/10/07 12:16:30;;;;;;;13.63;2.30;;;22.50;59.70;;;;;;5031320;28;20087;-75
2022/10/07 12:19:11;;;;;;;11.45;2.20;;;22.50;58.40;;;;;;5026607;28;20432;-75
2022/10/07 12:21:56;;;;;;;5.97;1.92;;;22.40;55.80;;;;;;5027192;28;20087;-73
2022/10/07 12:24:22;;;;;;;11.15;2.97;;;22.40;63.10;;;;;;5029692;28;20041;-75
2022/10/07 12:26:49;;;;;;;8.23;1.60;;;22.40;57.80;;;;;;5012867;28;20572;-73
2022/10/07 12:29:27;;;;;;;8.57;2.17;;;22.40;54.90;;;;;;5029225;28;20024;-74
2022/10/07 12:31:53;;;;;;;11.93;2.33;;;22.50;54.60;;;;;;5029423;28;20040;-73
2022/10/07 12:34:36;;;;;;;10.18;2.35;;;22.60;58.20;;;;;;5029196;28;20017;-76
2022/10/07 12:37:35;;;;;;;12.27;3.33;;;22.60;54.40;;;;;;5030200;28;20122;-73
2022/10/07 12:40:17;;;;;;;12.52;2.50;;;22.60;53.00;;;;;;5029274;28;20025;-75
2022/10/07 12:42:51;;;;;;;9.68;3.60;;;22.60;52.30;;;;;;5029505;28;20028;-77
2022/10/07 12:45:18;;;;;;;13.75;3.00;;;22.70;54.60;;;;;;5012470;28;20029;-74
2022/10/07 12:47:46;;;;;;;12.25;3.00;;;22.70;52.60;;;;;;5013193;28;20032;-75
2022/10/07 12:50:18;;;;;;;8.98;2.15;;;22.60;51.50;;;;;;5013053;28;20091;-76
2022/10/07 12:52:51;;;;;;;9.70;1.90;;;22.60;54.60;;;;;;5011547;28;20088;-74
2022/10/07 12:55:43;;;;;;;9.43;2.13;;;22.60;53.30;;;;;;5027308;28;20029;-75
2022/10/07 13:01:52;;;;;;;9.73;2.75;;;22.60;54.10;;;;;;5028640;28;20522;-77
2022/10/07 13:04:56;;;;;;;11.85;2.85;;;22.60;54.90;;;;;;5030296;28;20047;-74
2022/10/07 13:07:57;;;;;;;14.55;2.13;;;22.50;53.00;;;;;;5024658;28;20044;-74
2022/10/07 13:10:33;;;;;;;9.18;1.85;;;22.50;54.20;;;;;;5030390;28;20017;-75
2022/10/07 13:13:08;;;;;;;10.25;2.22;;;22.40;57.30;;;;;;5031649;28;20049;-75
2022/10/07 13:15:56;;;;;;;8.30;1.75;;;22.40;51.20;;;;;;5012164;28;20026;-76